Time;durP1;ratioP1;P1;durP2;ratioP2;P2;SDS_P1;SDS_P2;PMS_P1;PMS_P2;Temp;Humidity;BMP_temperature;BMP_pressure;BME280_temperature;BME280_humidity;BME280_pressure;Samples;Min_cycle;Max_cycle;Signal;HPM_P1;HPM_P2
2023/08/09 00:00:57;;;;;;;18.45;6.85;;;;;;;13.08;100.00;101154.19;5064979;28;20035;-69
2023/08/09 00:03:22;;;;;;;18.38;6.93;;;;;;;13.13;100.00;101156.84;5061696;28;20021;-68
2023/08/09 00:05:48;;;;;;;19.67;7.07;;;;;;;13.14;100.00;101148.00;5064969;28;20517;-68
2023/08/09 00:08:13;;;;;;;19.05;7.20;;;;;;;13.01;100.00;101147.13;5062636;28;20442;-68
2023/08/09 00:10:38;;;;;;;19.15;7.38;;;;;;;13.06;100.00;101161.25;5063313;28;20033;-75
2023/08/09 00:13:04;;;;;;;19.60;7.60;;;;;;;13.04;100.00;101152.41;5063872;28;20035;-68
2023/08/09 00:15:29;;;;;;;19.08;7.68;;;;;;;13.03;100.00;101161.25;5061999;28;20029;-75
2023/08/09 00:17:55;;;;;;;19.20;7.65;;;;;;;13.02;100.00;101165.69;5064810;28;20029;-68
2023/08/09 00:20:22;;;;;;;19.02;8.27;;;;;;;13.20;100.00;101154.16;5061492;28;20029;-68
2023/08/09 00:22:48;;;;;;;20.80;8.98;;;;;;;13.23;100.00;101151.50;5064483;28;20063;-68
2023/08/09 00:25:13;;;;;;;20.02;8.60;;;;;;;13.11;100.00;101164.78;5062169;28;20453;-68
2023/08/09 00:27:39;;;;;;;20.23;8.63;;;;;;;13.18;100.00;101174.53;5063140;28;20530;-68
2023/08/09 00:30:06;;;;;;;19.42;8.20;;;;;;;13.20;100.00;101164.78;5063434;28;20062;-68
2023/08/09 00:32:32;;;;;;;20.38;8.35;;;;;;;13.19;100.00;101163.03;5062118;28;20036;-76
2023/08/09 00:34:57;;;;;;;19.80;8.23;;;;;;;13.04;100.00;101163.03;5064429;28;20387;-68
2023/08/09 00:37:23;;;;;;;20.38;8.95;;;;;;;13.11;100.00;101154.19;5061119;28;20037;-75
2023/08/09 00:39:49;;;;;;;20.27;8.93;;;;;;;13.15;100.00;101161.25;5064228;28;20054;-68
2023/08/09 00:42:14;;;;;;;21.02;9.27;;;;;;;13.15;100.00;101155.03;5061985;28;20032;-68
2023/08/09 00:44:40;;;;;;;21.27;9.25;;;;;;;13.12;100.00;101161.28;5061694;28;20036;-68
2023/08/09 00:47:09;;;;;;;20.70;8.93;;;;;;;12.97;100.00;101163.91;5062976;28;20028;-68
2023/08/09 00:49:35;;;;;;;19.88;8.48;;;;;;;12.97;100.00;101163.91;5062569;28;20033;-69
2023/08/09 00:52:01;;;;;;;20.73;9.20;;;;;;;13.03;100.00;101164.81;5063441;28;20025;-68
2023/08/09 00:54:27;;;;;;;20.38;9.27;;;;;;;13.11;100.00;101171.88;5061125;28;20494;-69
2023/08/09 00:56:54;;;;;;;20.58;9.32;;;;;;;13.18;100.00;101171.88;5064582;28;20115;-68
2023/08/09 00:59:19;;;;;;;21.10;9.55;;;;;;;13.20;100.00;101170.09;5061007;28;20029;-68
2023/08/09 01:01:44;;;;;;;21.30;9.60;;;;;;;13.24;100.00;101174.50;5063546;28;20391;-68
2023/08/09 01:04:10;;;;;;;21.42;9.75;;;;;;;13.26;100.00;101185.13;5062336;28;20036;-68
2023/08/09 01:06:44;;;;;;;21.30;9.77;;;;;;;13.13;100.00;101183.38;5063394;28;20033;-68
2023/08/09 01:09:29;;;;;;;21.90;9.68;;;;;;;13.03;100.00;101182.50;5066350;28;20091;-72
2023/08/09 01:11:59;;;;;;;22.17;9.82;;;;;;;13.03;100.00;101175.44;5061355;28;20036;-69
2023/08/09 01:14:28;;;;;;;21.98;10.23;;;;;;;13.11;100.00;101172.75;5061494;28;20061;-69
2023/08/09 01:16:56;;;;;;;22.13;9.65;;;;;;;12.96;100.00;101178.06;5061192;28;20468;-75
2023/08/09 01:19:37;;;;;;;20.25;9.63;;;;;;;12.85;100.00;101178.94;5060825;28;20516;-68
2023/08/09 01:22:15;;;;;;;22.48;10.85;;;;;;;12.94;100.00;101177.19;5063332;28;20029;-68
2023/08/09 01:24:42;;;;;;;21.77;10.40;;;;;;;12.95;100.00;101177.19;5066020;28;20056;-68
2023/08/09 01:27:08;;;;;;;22.38;11.23;;;;;;;12.88;100.00;101180.72;5066398;28;20021;-71
2023/08/09 01:29:35;;;;;;;23.65;11.48;;;;;;;12.95;100.00;101173.66;5066557;28;20063;-69
2023/08/09 01:32:00;;;;;;;22.73;11.60;;;;;;;12.94;100.00;101177.19;5065145;28;20056;-68
2023/08/09 01:34:26;;;;;;;23.00;11.65;;;;;;;13.03;100.00;101182.50;5068026;28;20060;-68
2023/08/09 01:36:51;;;;;;;23.67;12.00;;;;;;;13.00;100.00;101183.38;5060457;28;20083;-68
2023/08/09 01:39:22;;;;;;;23.38;10.43;;;;;;;12.83;100.00;101182.47;5067595;28;20483;-68
2023/08/09 01:41:49;;;;;;;23.23;11.20;;;;;;;12.66;100.00;101177.19;5064865;28;20060;-68
2023/08/09 01:44:15;;;;;;;21.58;10.85;;;;;;;12.64;100.00;101184.22;5066935;28;20025;-75
2023/08/09 01:46:42;;;;;;;22.48;11.82;;;;;;;12.72;100.00;101187.78;5065564;28;20028;-73
2023/08/09 01:49:09;;;;;;;23.38;11.55;;;;;;;12.66;100.00;101187.78;5066232;28;20446;-75
2023/08/09 01:51:34;;;;;;;22.92;11.55;;;;;;;12.66;100.00;101187.78;5066698;28;20103;-75
2023/08/09 01:53:59;;;;;;;22.80;11.05;;;;;;;12.59;100.00;101188.66;5064558;28;20029;-73
2023/08/09 01:56:25;;;;;;;25.27;11.23;;;;;;;12.53;100.00;101193.06;5067886;28;20024;-75
2023/08/09 01:58:51;;;;;;;25.75;12.23;;;;;;;12.47;100.00;101187.75;5064231;28;20122;-75
2023/08/09 02:01:16;;;;;;;24.27;12.88;;;;;;;12.41;100.00;101184.19;5067043;28;20433;-74
2023/08/09 02:03:42;;;;;;;23.85;12.38;;;;;;;12.41;100.00;101185.09;5065277;28;20025;-75
2023/08/09 02:06:07;;;;;;;23.98;11.80;;;;;;;12.35;100.00;101195.69;5065452;28;20021;-75
2023/08/09 02:08:33;;;;;;;27.67;12.05;;;;;;;12.20;100.00;101192.13;5066726;28;20460;-74
2023/08/09 02:10:58;;;;;;;26.58;11.45;;;;;;;12.14;100.00;101199.16;5064029;28;20120;-74
2023/08/09 02:13:23;;;;;;;26.83;11.30;;;;;;;12.11;100.00;101197.38;5067143;28;20025;-74
2023/08/09 02:15:49;;;;;;;40.90;11.80;;;;;;;11.97;100.00;101196.41;5064174;28;20029;-75
2023/08/09 02:18:15;;;;;;;65.38;12.77;;;;;;;12.01;100.00;101196.47;5064991;28;20017;-75
2023/08/09 02:20:40;;;;;;;41.80;12.23;;;;;;;12.05;100.00;101200.00;5065148;28;20115;-75
2023/08/09 02:23:06;;;;;;;41.10;11.65;;;;;;;11.98;100.00;101206.16;5065431;28;20368;-75
2023/08/09 02:25:31;;;;;;;99.18;14.00;;;;;;;11.84;100.00;101206.06;5066302;28;20028;-74
2023/08/09 02:27:57;;;;;;;118.72;13.63;;;;;;;11.86;100.00;101206.94;5063204;28;20053;-72
2023/08/09 02:30:22;;;;;;;98.18;14.77;;;;;;;11.93;100.00;101207.88;5066996;28;20387;-74
2023/08/09 02:32:50;;;;;;;62.92;13.70;;;;;;;11.83;100.00;101210.47;5062591;28;20107;-69
2023/08/09 02:35:16;;;;;;;146.80;16.60;;;;;;;11.66;100.00;101213.03;5065969;28;20039;-68
2023/08/09 02:37:41;;;;;;;105.55;14.40;;;;;;;11.60;100.00;101220.94;5064924;28;20099;-69
2023/08/09 02:40:07;;;;;;;79.05;13.88;;;;;;;11.69;100.00;101222.75;5064679;28;20041;-68
2023/08/09 02:42:33;;;;;;;91.78;13.75;;;;;;;11.58;100.00;101227.13;5065778;28;20021;-69
2023/08/09 02:44:59;;;;;;;46.38;11.43;;;;;;;11.61;100.00;101235.06;5063688;28;20031;-68
2023/08/09 02:47:24;;;;;;;43.05;10.73;;;;;;;11.61;100.00;101235.94;5066705;28;20032;-75
2023/08/09 02:49:50;;;;;;;28.30;10.00;;;;;;;11.62;100.00;101220.94;5063380;28;20487;-72
2023/08/09 02:52:15;;;;;;;25.77;9.93;;;;;;;11.51;100.00;101229.69;5065605;28;20033;-68
2023/08/09 02:54:41;;;;;;;24.48;10.50;;;;;;;11.49;100.00;101241.19;5064492;28;20029;-68
2023/08/09 02:57:06;;;;;;;24.75;11.02;;;;;;;11.57;100.00;101247.38;5064446;28;20060;-68
2023/08/09 02:59:32;;;;;;;37.13;12.70;;;;;;;11.50;100.00;101246.47;5065624;28;20048;-68
2023/08/09 03:01:58;;;;;;;35.63;11.68;;;;;;;11.46;100.00;101249.97;5062885;28;20021;-68
2023/08/09 03:04:23;;;;;;;33.03;11.75;;;;;;;11.46;100.00;101247.31;5066453;28;20467;-68
2023/08/09 03:06:48;;;;;;;23.20;10.98;;;;;;;11.48;100.00;101242.03;5063251;28;20024;-68
2023/08/09 03:09:14;;;;;;;22.05;10.35;;;;;;;11.38;100.00;101242.84;5063715;28;20068;-68
2023/08/09 03:11:39;;;;;;;25.55;10.02;;;;;;;11.31;100.00;101249.84;5064512;28;20490;-68
2023/08/09 03:14:05;;;;;;;37.67;10.05;;;;;;;11.25;100.00;101253.34;5063685;28;20041;-68
2023/08/09 03:16:30;;;;;;;59.22;12.45;;;;;;;11.24;100.00;101261.25;5065473;28;20033;-68
2023/08/09 03:18:55;;;;;;;63.58;11.90;;;;;;;11.25;100.00;101263.91;5062769;28;20033;-68
2023/08/09 03:21:22;;;;;;;45.20;11.50;;;;;;;11.33;100.00;101256.94;5065707;28;20028;-68
2023/08/09 03:23:47;;;;;;;63.22;12.98;;;;;;;11.33;100.00;101258.72;5063343;28;20115;-68
2023/08/09 03:26:13;;;;;;;50.35;12.32;;;;;;;11.35;100.00;101251.66;5064605;28;20055;-68
2023/08/09 03:28:39;;;;;;;48.05;11.63;;;;;;;11.26;100.00;101254.25;5063959;28;20080;-69
2023/08/09 03:31:04;;;;;;;58.95;12.45;;;;;;;11.28;100.00;101263.94;5063323;28;20494;-68
2023/08/09 03:33:30;;;;;;;97.80;15.48;;;;;;;11.23;100.00;101263.03;5065261;28;20111;-69
2023/08/09 03:35:55;;;;;;;70.78;13.20;;;;;;;11.36;100.00;101261.38;5062190;28;20068;-68
2023/08/09 03:38:21;;;;;;;47.80;11.50;;;;;;;11.39;100.00;101265.78;5065541;28;20031;-68
2023/08/09 03:40:46;;;;;;;43.97;11.70;;;;;;;11.30;100.00;101272.78;5062749;28;20090;-68
2023/08/09 03:43:11;;;;;;;36.10;11.60;;;;;;;11.24;100.00;101272.75;5064087;28;20025;-69
2023/08/09 03:45:37;;;;;;;38.47;12.18;;;;;;;11.25;100.00;101281.56;5064230;28;20119;-68
2023/08/09 03:48:02;;;;;;;33.55;11.70;;;;;;;11.32;100.00;101284.25;5062686;28;20057;-68
2023/08/09 03:50:28;;;;;;;29.45;12.05;;;;;;;11.38;100.00;101291.38;5065156;28;20142;-68
2023/08/09 03:52:54;;;;;;;31.05;12.32;;;;;;;11.34;100.00;101286.94;5061982;28;20033;-67
2023/08/09 03:55:19;;;;;;;31.02;12.23;;;;;;;11.31;100.00;101289.56;5064798;28;20025;-67
2023/08/09 03:57:45;;;;;;;28.23;12.43;;;;;;;11.19;100.00;101289.47;5062850;28;20025;-68
2023/08/09 04:00:17;;;;;;;27.33;12.15;;;;;;;11.27;100.00;101299.25;5063603;28;20472;-68
2023/08/09 04:02:43;;;;;;;30.85;13.10;;;;;;;11.27;100.00;101303.63;5063277;28;20356;-74
2023/08/09 04:05:09;;;;;;;32.30;12.68;;;;;;;11.26;100.00;101296.59;5063100;28;20108;-68
2023/08/09 04:07:34;;;;;;;40.72;13.90;;;;;;;11.27;100.00;101298.34;5064264;28;20128;-68
2023/08/09 04:09:59;;;;;;;38.97;13.13;;;;;;;11.25;100.00;101298.31;5061770;28;20065;-68
2023/08/09 04:12:25;;;;;;;42.40;13.30;;;;;;;11.27;100.00;101300.97;5064964;28;20099;-68
2023/08/09 04:14:50;;;;;;;32.53;13.77;;;;;;;11.36;100.00;101306.38;5061957;28;20446;-67
2023/08/09 04:17:16;;;;;;;37.47;13.75;;;;;;;11.38;100.00;101314.31;5063874;28;20472;-68
2023/08/09 04:19:42;;;;;;;38.13;13.70;;;;;;;11.44;100.00;101317.00;5063082;28;20020;-69
2023/08/09 04:22:08;;;;;;;48.65;15.20;;;;;;;11.36;100.00;101314.31;5062763;28;20052;-67
2023/08/09 04:24:33;;;;;;;46.25;15.10;;;;;;;11.33;100.00;101311.63;5063922;28;20500;-68
2023/08/09 04:26:59;;;;;;;45.08;14.57;;;;;;;11.40;100.00;101305.53;5061595;28;20460;-68
2023/08/09 04:29:24;;;;;;;42.63;14.45;;;;;;;11.28;100.00;101318.63;5064419;28;20049;-68
2023/08/09 04:31:50;;;;;;;37.10;13.55;;;;;;;11.23;100.00;101320.38;5060181;28;20110;-67
2023/08/09 04:34:15;;;;;;;34.25;13.00;;;;;;;11.24;100.00;101322.13;5064028;28;20029;-67
2023/08/09 04:36:41;;;;;;;35.50;13.40;;;;;;;11.22;100.00;101319.47;5062744;28;20383;-67
2023/08/09 04:39:09;;;;;;;48.72;14.93;;;;;;;11.18;100.00;101314.13;5062247;28;20426;-67
2023/08/09 04:41:35;;;;;;;41.15;14.88;;;;;;;11.18;100.00;101316.78;5062026;28;20029;-69
2023/08/09 04:44:00;;;;;;;35.28;14.45;;;;;;;11.20;100.00;101317.66;5061334;28;20506;-67
2023/08/09 04:46:26;;;;;;;35.30;15.45;;;;;;;11.21;100.00;101322.09;5064414;28;20041;-67
2023/08/09 04:48:51;;;;;;;35.17;16.13;;;;;;;11.26;100.00;101334.50;5061346;28;20488;-72
2023/08/09 04:51:18;;;;;;;31.05;15.77;;;;;;;11.32;100.00;101320.44;5063426;28;20090;-75
2023/08/09 04:53:43;;;;;;;32.13;16.80;;;;;;;11.33;100.00;101327.53;5062168;28;20487;-68
2023/08/09 04:56:09;;;;;;;37.08;19.55;;;;;;;11.34;100.00;101326.63;5062752;28;20040;-68
2023/08/09 04:58:34;;;;;;;42.70;21.92;;;;;;;11.31;100.00;101324.88;5063475;28;20066;-67
2023/08/09 05:01:00;;;;;;;33.78;19.98;;;;;;;11.43;100.00;101326.72;5060981;28;20036;-68
2023/08/09 05:03:25;;;;;;;31.65;18.85;;;;;;;11.52;100.00;101340.03;5064453;28;20048;-74
2023/08/09 05:05:50;;;;;;;34.25;19.92;;;;;;;11.60;100.00;101341.84;5061116;28;20025;-74
2023/08/09 05:08:16;;;;;;;35.85;21.65;;;;;;;11.73;100.00;101342.84;5063433;28;20039;-68
2023/08/09 05:10:41;;;;;;;38.60;23.50;;;;;;;11.84;100.00;101352.63;5062238;28;20032;-67
2023/08/09 05:13:07;;;;;;;40.28;24.52;;;;;;;11.84;100.00;101344.69;5061767;28;20029;-67
2023/08/09 05:15:32;;;;;;;41.53;24.83;;;;;;;11.84;100.00;101349.13;5063784;28;20053;-68
2023/08/09 05:17:57;;;;;;;38.08;23.85;;;;;;;11.97;100.00;101350.09;5060672;28;20036;-69
2023/08/09 05:20:23;;;;;;;41.50;23.60;;;;;;;11.99;100.00;101345.72;5064004;28;20029;-68
2023/08/09 05:22:50;;;;;;;40.40;23.42;;;;;;;12.07;100.00;101351.03;5061521;28;20048;-68
2023/08/09 05:25:16;;;;;;;44.25;24.75;;;;;;;12.16;100.00;101356.44;5062934;28;20036;-69
2023/08/09 05:27:46;;;;;;;44.85;23.52;;;;;;;12.16;100.00;101354.66;5062037;28;20028;-68
2023/08/09 05:30:12;;;;;;;46.00;23.00;;;;;;;12.19;100.00;101359.09;5062354;28;20045;-68
2023/08/09 05:32:37;;;;;;;49.72;23.80;;;;;;;12.23;100.00;101363.50;5062631;28;20460;-67
2023/08/09 05:35:04;;;;;;;57.47;24.30;;;;;;;12.29;100.00;101368.88;5061193;28;20032;-70
2023/08/09 05:37:29;;;;;;;79.05;23.65;;;;;;;12.29;100.00;101363.56;5063986;28;20074;-68
2023/08/09 05:39:54;;;;;;;60.70;24.27;;;;;;;12.37;100.00;101371.53;5060479;28;20032;-68
2023/08/09 05:42:20;;;;;;;65.75;25.27;;;;;;;12.41;100.00;101376.00;5063300;28;20056;-68
2023/08/09 05:44:45;;;;;;;60.10;26.70;;;;;;;12.45;100.00;101364.53;5061748;28;20033;-75
2023/08/09 05:47:10;;;;;;;67.20;29.77;;;;;;;12.40;100.00;101365.38;5062026;28;20029;-75
2023/08/09 05:49:36;;;;;;;55.33;29.33;;;;;;;12.32;100.00;101368.88;5062816;28;20032;-67
2023/08/09 05:52:01;;;;;;;66.35;31.83;;;;;;;12.31;100.00;101371.53;5060979;28;20115;-68
2023/08/09 05:54:27;;;;;;;80.85;31.02;;;;;;;12.31;100.00;101382.13;5067634;28;20703;-74
2023/08/09 05:56:52;;;;;;;70.30;30.58;;;;;;;12.45;100.00;101387.47;5064492;28;20021;-68
2023/08/09 05:59:17;;;;;;;87.18;32.22;;;;;;;12.50;100.00;101378.69;5066856;28;20032;-68
2023/08/09 06:01:43;;;;;;;138.43;33.35;;;;;;;12.53;100.00;101378.69;5065428;28;20025;-68
2023/08/09 06:04:08;;;;;;;102.00;33.08;;;;;;;12.55;100.00;101382.25;5065339;28;20060;-68
2023/08/09 06:06:34;;;;;;;85.15;31.40;;;;;;;12.55;100.00;101386.66;5066718;28;20032;-68
2023/08/09 06:08:59;;;;;;;91.97;32.90;;;;;;;12.49;100.00;101397.22;5064106;28;20094;-68
2023/08/09 06:11:25;;;;;;;83.63;32.53;;;;;;;12.56;100.00;101404.34;5067692;28;20025;-68
2023/08/09 06:13:51;;;;;;;90.07;33.80;;;;;;;12.55;100.00;101407.88;5064210;28;20029;-74
2023/08/09 06:16:16;;;;;;;93.93;33.28;;;;;;;12.55;100.00;101398.16;5066076;28;20039;-70
2023/08/09 06:18:41;;;;;;;78.82;33.60;;;;;;;12.69;100.00;101413.25;5065865;28;20384;-68
2023/08/09 06:21:07;;;;;;;87.78;33.55;;;;;;;12.67;100.00;101415.03;5064828;28;20067;-68
2023/08/09 06:23:32;;;;;;;87.50;33.65;;;;;;;12.67;100.00;101429.16;5066508;28;20082;-68
2023/08/09 06:25:58;;;;;;;114.40;35.33;;;;;;;12.66;100.00;101439.75;5063764;28;20037;-68
2023/08/09 06:28:23;;;;;;;148.55;35.88;;;;;;;12.63;100.00;101430.03;5066493;28;20522;-68
2023/08/09 06:30:49;;;;;;;122.35;35.97;;;;;;;12.69;100.00;101438.00;5064141;28;20040;-71
2023/08/09 06:33:14;;;;;;;104.10;35.80;;;;;;;12.84;100.00;101437.22;5065754;28;20048;-74
2023/08/09 06:35:39;;;;;;;100.80;35.65;;;;;;;12.78;100.00;101431.84;5065297;28;20086;-68
2023/08/09 06:38:05;;;;;;;79.70;35.85;;;;;;;12.82;100.00;101438.94;5064318;28;20033;-68
2023/08/09 06:40:30;;;;;;;90.55;36.47;;;;;;;12.86;100.00;101432.78;5066518;28;20029;-68
2023/08/09 06:42:56;;;;;;;88.70;36.92;;;;;;;12.86;100.00;101440.75;5063262;28;20108;-73
2023/08/09 06:45:22;;;;;;;96.65;37.22;;;;;;;12.86;100.00;101439.88;5066502;28;20040;-74
2023/08/09 06:47:47;;;;;;;86.18;36.60;;;;;;;13.04;100.00;101441.69;5064065;28;20028;-68
2023/08/09 06:50:12;;;;;;;84.00;34.85;;;;;;;13.13;100.00;101454.13;5064844;28;20107;-68
2023/08/09 06:52:38;;;;;;;83.55;34.80;;;;;;;13.07;100.00;101449.66;5065629;28;20033;-68
2023/08/09 06:55:05;;;;;;;82.07;34.95;;;;;;;13.18;100.00;101447.94;5063560;28;20036;-75
2023/08/09 06:57:30;;;;;;;73.13;34.03;;;;;;;13.29;100.00;101452.41;5066284;28;20028;-69
2023/08/09 06:59:56;;;;;;;79.35;32.78;;;;;;;13.33;100.00;101449.75;5063046;28;20036;-68
2023/08/09 07:02:21;;;;;;;60.15;32.45;;;;;;;13.39;100.00;101456.88;5065871;28;20025;-74
2023/08/09 07:04:52;;;;;;;59.95;31.75;;;;;;;13.33;100.00;101472.75;5063281;28;20025;-67
2023/08/09 07:07:18;;;;;;;55.90;31.45;;;;;;;13.40;100.00;101475.47;5065561;28;20017;-69
2023/08/09 07:09:43;;;;;;;54.03;30.73;;;;;;;13.53;100.00;101465.75;5064318;28;20071;-74
2023/08/09 07:12:09;;;;;;;52.90;29.88;;;;;;;13.57;100.00;101467.56;5063806;28;20483;-68
2023/08/09 07:14:35;;;;;;;50.30;29.65;;;;;;;13.68;100.00;101466.69;5064467;28;20036;-68
2023/08/09 07:17:00;;;;;;;49.65;28.88;;;;;;;13.77;100.00;101464.03;5061523;28;20035;-68
2023/08/09 07:19:25;;;;;;;50.20;30.13;;;;;;;13.94;100.00;101472.00;5066010;28;20035;-68
2023/08/09 07:21:51;;;;;;;48.00;28.90;;;;;;;14.01;100.00;101480.84;5063274;28;20029;-67
2023/08/09 07:24:16;;;;;;;44.63;27.63;;;;;;;14.08;100.00;101472.91;5064650;28;20060;-68
2023/08/09 07:26:42;;;;;;;44.17;28.73;;;;;;;14.18;100.00;101479.09;5064408;28;20391;-68
2023/08/09 07:29:07;;;;;;;44.17;28.90;;;;;;;14.18;100.00;101479.09;5063154;28;20393;-68
2023/08/09 07:31:32;;;;;;;43.40;28.42;;;;;;;14.43;100.00;101477.31;5065311;28;20490;-76
2023/08/09 07:33:58;;;;;;;43.55;28.98;;;;;;;14.46;100.00;101476.41;5062488;28;20392;-75
2023/08/09 07:36:23;;;;;;;39.67;27.33;;;;;;;14.26;100.00;101489.75;5065365;28;20028;-68
2023/08/09 07:38:48;;;;;;;39.38;26.65;;;;;;;14.25;100.00;101487.97;5063306;28;20037;-68
2023/08/09 07:41:14;;;;;;;37.20;26.08;;;;;;;14.41;100.00;101489.69;5064214;28;20048;-68
2023/08/09 07:43:39;;;;;;;36.28;25.30;;;;;;;14.36;100.00;101495.91;5062899;28;20021;-75
2023/08/09 07:46:06;;;;;;;36.42;24.75;;;;;;;14.25;100.00;101493.28;5062787;28;20025;-68
2023/08/09 07:48:34;;;;;;;35.95;24.25;;;;;;;14.34;100.00;101497.69;5065407;28;20028;-68
2023/08/09 07:51:00;;;;;;;33.90;23.55;;;;;;;14.44;100.00;101504.78;5061875;28;20057;-68
2023/08/09 07:53:26;;;;;;;35.13;23.77;;;;;;;14.49;100.00;101495.03;5057823;28;20049;-68
2023/08/09 07:55:51;;;;;;;34.63;24.10;;;;;;;14.50;100.00;101507.41;5065212;28;20028;-67
2023/08/09 07:58:17;;;;;;;35.97;24.52;;;;;;;14.76;100.00;101510.06;5062870;28;20028;-69
2023/08/09 08:00:42;;;;;;;32.30;22.50;;;;;;;14.80;100.00;101509.19;5063467;28;20029;-68
2023/08/09 08:03:09;;;;;;;32.40;22.95;;;;;;;14.90;100.00;101512.72;5062900;28;20032;-68
2023/08/09 08:05:34;;;;;;;31.25;21.88;;;;;;;15.23;100.00;101515.25;5062291;28;20036;-68
2023/08/09 08:08:00;;;;;;;29.90;21.02;;;;;;;14.97;100.00;101510.91;5063817;28;20395;-68
2023/08/09 08:10:26;;;;;;;31.15;21.52;;;;;;;15.02;100.00;101516.22;5057693;28;20036;-68
2023/08/09 08:12:51;;;;;;;30.05;20.08;;;;;;;15.20;100.00;101513.47;5064449;28;20021;-68
2023/08/09 08:15:18;;;;;;;29.05;19.67;;;;;;;15.27;100.00;101514.34;5062703;28;20376;-68
2023/08/09 08:17:46;;;;;;;28.08;18.75;;;;;;;15.22;100.00;101517.03;5062912;28;20078;-75
2023/08/09 08:20:15;;;;;;;27.13;18.05;;;;;;;15.19;100.00;101511.72;5063350;28;20033;-75
2023/08/09 08:22:49;;;;;;;28.73;19.08;;;;;;;15.37;100.00;101520.53;5062790;28;20054;-68
2023/08/09 08:25:16;;;;;;;27.48;18.08;;;;;;;15.50;100.00;101511.56;5063003;28;20154;-68
2023/08/09 08:27:42;;;;;;;27.52;17.17;;;;;;;15.73;100.00;101513.19;5062776;28;20025;-68
2023/08/09 08:30:09;;;;;;;26.02;16.23;;;;;;;15.96;100.00;101508.63;5063379;28;20053;-68
2023/08/09 08:32:35;;;;;;;25.20;15.50;;;;;;;16.33;100.00;101510.13;5061914;28;20498;-68
2023/08/09 08:35:02;;;;;;;25.63;16.38;;;;;;;16.57;100.00;101514.31;5064852;28;20384;-68
2023/08/09 08:37:28;;;;;;;25.10;15.20;;;;;;;16.41;100.00;101507.38;5061147;28;20482;-68
2023/08/09 08:39:53;;;;;;;24.45;14.75;;;;;;;16.43;100.00;101508.25;5064686;28;20119;-68
2023/08/09 08:42:18;;;;;;;25.20;14.90;;;;;;;16.51;100.00;101499.28;5062312;28;20033;-68
2023/08/09 08:44:44;;;;;;;23.98;13.57;;;;;;;16.30;100.00;101500.34;5062844;28;20472;-68
2023/08/09 08:47:10;;;;;;;25.63;14.45;;;;;;;16.14;100.00;101502.25;5063500;28;20033;-68
2023/08/09 08:49:41;;;;;;;24.08;14.38;;;;;;;16.81;100.00;101518.53;5061691;28;20033;-68
2023/08/09 08:52:07;;;;;;;23.98;12.88;;;;;;;17.04;100.00;101493.41;5063484;28;20144;-69
2023/08/09 08:54:34;;;;;;;22.92;13.38;;;;;;;17.28;100.00;101492.19;5061506;28;20025;-68
2023/08/09 08:56:59;;;;;;;23.48;11.27;;;;;;;17.31;100.00;101496.59;5064378;28;20021;-69
2023/08/09 08:59:25;;;;;;;22.08;11.35;;;;;;;16.97;100.00;101497.91;5061110;28;20028;-68
2023/08/09 09:01:51;;;;;;;22.50;11.25;;;;;;;16.84;100.00;101501.59;5063697;28;20610;-73
2023/08/09 09:04:17;;;;;;;22.10;10.52;;;;;;;17.55;100.00;101506.97;5062058;28;20082;-68
2023/08/09 09:06:42;;;;;;;21.55;10.60;;;;;;;17.78;100.00;101513.78;5062435;28;20033;-68
2023/08/09 09:09:15;;;;;;;19.98;8.70;;;;;;;17.78;100.00;101503.06;5063451;28;20471;-69
2023/08/09 09:11:43;;;;;;;19.60;8.60;;;;;;;17.34;100.00;101508.13;5061931;28;20036;-74
2023/08/09 09:14:15;;;;;;;20.42;9.38;;;;;;;17.45;100.00;101508.00;5063102;28;20110;-68
2023/08/09 09:16:42;;;;;;;21.25;9.35;;;;;;;17.22;100.00;101505.63;5062271;28;20108;-68
2023/08/09 09:19:09;;;;;;;20.85;9.60;;;;;;;17.22;100.00;101508.28;5062008;28;20032;-68
2023/08/09 09:21:36;;;;;;;20.02;8.52;;;;;;;17.40;100.00;101508.06;5061289;28;20029;-68
2023/08/09 09:24:07;;;;;;;19.63;8.38;;;;;;;18.04;100.00;101508.06;5064347;28;20116;-69
2023/08/09 09:26:33;;;;;;;20.65;8.20;;;;;;;18.49;100.00;101507.25;5061286;28;20032;-68
2023/08/09 09:28:59;;;;;;;19.77;8.23;;;;;;;18.82;100.00;101505.75;5067119;28;20059;-70
2023/08/09 09:31:35;;;;;;;19.15;7.85;;;;;;;19.02;100.00;101519.69;5065055;28;20045;-68
2023/08/09 09:34:01;;;;;;;19.42;7.75;;;;;;;19.10;100.00;101518.63;5061363;28;20033;-68
2023/08/09 09:36:26;;;;;;;20.35;8.20;;;;;;;19.70;100.00;101521.78;5060443;28;20028;-68
2023/08/09 09:38:56;;;;;;;19.30;8.20;;;;;;;20.43;100.00;101520.97;5067244;28;20480;-68
2023/08/09 09:41:21;;;;;;;19.45;7.80;;;;;;;20.97;100.00;101524.91;5065303;28;20070;-71
2023/08/09 09:43:50;;;;;;;20.27;9.00;;;;;;;21.85;100.00;101503.44;5066467;28;20053;-69
2023/08/09 09:46:23;;;;;;;19.80;8.35;;;;;;;21.53;100.00;101512.53;5065865;28;20025;-69
2023/08/09 09:48:58;;;;;;;19.80;8.90;;;;;;;21.62;100.00;101516.75;5066585;28;20027;-70
2023/08/09 09:51:24;;;;;;;20.00;8.63;;;;;;;22.24;100.00;101491.41;5064782;28;20065;-69
2023/08/09 09:53:49;;;;;;;19.67;9.20;;;;;;;23.03;100.00;101505.66;5066578;28;20498;-68
2023/08/09 09:56:15;;;;;;;20.63;9.80;;;;;;;23.90;100.00;101495.13;5065804;28;20032;-72
2023/08/09 09:58:41;;;;;;;20.45;9.02;;;;;;;23.88;100.00;101497.00;5065450;28;20066;-68
2023/08/09 10:01:09;;;;;;;19.80;8.60;;;;;;;24.50;100.00;101511.50;5066779;28;20031;-69
2023/08/09 10:03:38;;;;;;;18.92;7.97;;;;;;;24.04;100.00;101509.88;5064459;28;20090;-69
2023/08/09 10:06:08;;;;;;;19.75;9.00;;;;;;;22.73;100.00;101507.66;5067196;28;20033;-71
2023/08/09 10:08:34;;;;;;;19.90;8.98;;;;;;;23.49;100.00;101506.63;5064128;28;20104;-71
2023/08/09 10:11:02;;;;;;;20.02;8.38;;;;;;;24.92;100.00;101509.69;5067219;28;20082;-69
2023/08/09 10:13:30;;;;;;;20.10;8.32;;;;;;;24.69;100.00;101508.00;5060114;28;20086;-69
2023/08/09 10:15:59;;;;;;;19.75;7.80;;;;;;;25.76;100.00;101501.25;5067106;28;20124;-75
2023/08/09 10:18:31;;;;;;;18.30;7.50;;;;;;;25.26;98.82;101494.59;5064006;28;20379;-75
2023/08/09 10:20:59;;;;;;;17.75;7.30;;;;;;;25.35;100.00;101499.63;5067071;28;20028;-73
2023/08/09 10:23:28;;;;;;;16.98;6.70;;;;;;;24.64;98.98;101497.41;5064068;28;20028;-73
2023/08/09 10:25:55;;;;;;;16.75;6.40;;;;;;;24.37;100.00;101500.31;5066617;28;20020;-74
2023/08/09 10:28:47;;;;;;;16.85;6.35;;;;;;;24.64;100.00;101510.94;5064025;28;20487;-76
2023/08/09 10:31:14;;;;;;;16.95;6.32;;;;;;;24.09;100.00;101508.75;5051798;28;20040;-76
2023/08/09 10:34:08;;;;;;;17.58;6.50;;;;;;;23.48;100.00;101512.09;5064700;28;20052;-76
2023/08/09 10:36:34;;;;;;;19.00;7.05;;;;;;;24.24;100.00;101511.75;5060232;28;20438;-69
2023/08/09 10:39:16;;;;;;;16.65;6.40;;;;;;;25.22;100.00;101529.03;5066088;28;20025;-77
2023/08/09 10:42:04;;;;;;;15.85;6.47;;;;;;;24.95;100.00;101533.00;5063070;28;20021;-76
2023/08/09 10:44:35;;;;;;;16.38;6.50;;;;;;;25.26;100.00;101523.47;5059708;28;20021;-68
2023/08/09 10:47:06;;;;;;;17.65;7.28;;;;;;;25.30;95.16;101523.25;5059680;28;20358;-69
2023/08/09 10:49:56;;;;;;;16.83;6.60;;;;;;;24.35;100.00;101529.25;5059891;28;20113;-69
2023/08/09 10:52:31;;;;;;;15.95;6.40;;;;;;;25.43;100.00;101529.00;5065024;28;20029;-73
2023/08/09 10:55:28;;;;;;;16.02;6.20;;;;;;;26.76;97.18;101528.72;5063044;28;20029;-69
2023/08/09 10:57:55;;;;;;;15.38;5.68;;;;;;;26.83;76.66;101523.84;5050377;28;20078;-71
2023/08/09 11:00:22;;;;;;;16.30;5.72;;;;;;;26.90;70.78;101529.84;5065479;28;20065;-69
2023/08/09 11:02:53;;;;;;;14.27;5.68;;;;;;;24.76;72.14;101530.25;5064307;28;20028;-69